This is the latest recevied weather packets stored in our database for station/object DB0RV-13. If no packets are shown the sender has not sent any weather packets the latest 1 day(s).
| Time | Temp. | Humidity | Pressure | Rain* | Wind** | Luminosity | Snow |
|---|---|---|---|---|---|---|---|
| 1836274675 | 15° C | 90% | 1021 hPa | - | 0.89 m/s, 309° | - | - |
| 1836274526 | 13.33° C | 90% | 1021 hPa | - | 0.45 m/s, 242° | - | - |
| 1836274375 | 14.44° C | 90% | 1021 hPa | - | 1.34 m/s, 296° | - | - |
| 1836274226 | 14.44° C | 88% | 1020.9 hPa | - | 1.34 m/s, 296° | - | - |
| 1836274076 | 13.89° C | 93% | 1021 hPa | - | 1.34 m/s, 311° | - | - |
| 1778017802 | 10.56° C | 88% | 1008.8 hPa | - | 1.79 m/s, 258° | - | - |
| 1778017502 | 10.56° C | 89% | 1008.8 hPa | - | 1.79 m/s, 243° | - | - |
| 1778017201 | 10° C | 89% | 1008.8 hPa | - | 1.34 m/s, 240° | - | - |
| 1778016902 | 10° C | 90% | 1008.9 hPa | - | 1.34 m/s, 240° | - | - |
| 1778016602 | 10° C | 90% | 1009 hPa | - | 0.89 m/s, 244° | - | - |
| 1778016301 | 10.56° C | 90% | 1008.9 hPa | - | 1.34 m/s, 248° | - | - |
| 1778016002 | 10° C | 90% | 1009 hPa | - | 1.79 m/s, 266° | - | - |
| 1778015702 | 10° C | 90% | 1009 hPa | - | 0.89 m/s, 243° | - | - |
| 1778015401 | 10° C | 90% | 1009 hPa | - | 1.79 m/s, 239° | - | - |
| 1778015102 | 10.56° C | 89% | 1008.9 hPa | - | 1.34 m/s, 239° | - | - |
| 1778014802 | 10.56° C | 90% | 1008.9 hPa | - | 2.68 m/s, 218° | - | - |
| 1778014501 | 10.56° C | 90% | 1008.9 hPa | - | 1.34 m/s, 241° | - | - |
| 1778014202 | 10.56° C | 90% | 1009 hPa | - | 1.34 m/s, 222° | - | - |
| 1778013902 | 10.56° C | 90% | 1009 hPa | - | 1.79 m/s, 247° | - | - |
| 1778013601 | 10.56° C | 90% | 1009.1 hPa | - | 1.79 m/s, 256° | - | - |
| 1778013302 | 10.56° C | 90% | 1009.1 hPa | - | 1.79 m/s, 243° | - | - |
| 1778013002 | 10.56° C | 91% | 1009.1 hPa | - | 1.79 m/s, 217° | - | - |
| 1778012702 | 10.56° C | 90% | 1009.1 hPa | - | 2.24 m/s, 243° | - | - |
| 1778012402 | 10.56° C | 90% | 1009 hPa | - | 1.34 m/s, 233° | - | - |
| 1778012102 | 10.56° C | 89% | 1009.1 hPa | - | 1.34 m/s, 227° | - | - |
* Rain since midnight (hover to see other rain measurements)
** Current wind speed in m/s (hover to see current wind gust speed)